sensor_id;sensor_type;location;lat;lon;timestamp;P1;durP1;ratioP1;P2;durP2;ratioP2
75073;SDS011;63652;51.526;5.080;2023-04-22T00:01:20;5.22;;;3.53;;
75073;SDS011;63652;51.526;5.080;2023-04-22T00:03:48;7.18;;;4.35;;
75073;SDS011;63652;51.526;5.080;2023-04-22T00:06:14;4.60;;;3.05;;
75073;SDS011;63652;51.526;5.080;2023-04-22T00:08:40;6.28;;;3.63;;
75073;SDS011;63652;51.526;5.080;2023-04-22T00:11:05;6.65;;;3.75;;
75073;SDS011;63652;51.526;5.080;2023-04-22T00:13:31;6.15;;;4.07;;
75073;SDS011;63652;51.526;5.080;2023-04-22T00:15:56;4.40;;;3.72;;
75073;SDS011;63652;51.526;5.080;2023-04-22T00:18:22;7.45;;;3.72;;
75073;SDS011;63652;51.526;5.080;2023-04-22T00:20:47;5.15;;;3.53;;
75073;SDS011;63652;51.526;5.080;2023-04-22T00:23:12;6.70;;;3.78;;
75073;SDS011;63652;51.526;5.080;2023-04-22T00:25:38;8.75;;;3.70;;
75073;SDS011;63652;51.526;5.080;2023-04-22T00:28:05;6.30;;;3.38;;
75073;SDS011;63652;51.526;5.080;2023-04-22T00:30:30;7.50;;;4.15;;
75073;SDS011;63652;51.526;5.080;2023-04-22T00:32:56;6.15;;;3.45;;
75073;SDS011;63652;51.526;5.080;2023-04-22T00:35:21;5.38;;;3.17;;
75073;SDS011;63652;51.526;5.080;2023-04-22T00:37:47;5.93;;;3.55;;
75073;SDS011;63652;51.526;5.080;2023-04-22T00:40:12;5.38;;;3.28;;
75073;SDS011;63652;51.526;5.080;2023-04-22T00:42:37;4.80;;;3.35;;
75073;SDS011;63652;51.526;5.080;2023-04-22T00:45:03;5.70;;;3.85;;
75073;SDS011;63652;51.526;5.080;2023-04-22T00:47:29;6.38;;;3.65;;
75073;SDS011;63652;51.526;5.080;2023-04-22T00:49:56;12.55;;;4.25;;
75073;SDS011;63652;51.526;5.080;2023-04-22T00:52:22;4.75;;;3.28;;
75073;SDS011;63652;51.526;5.080;2023-04-22T00:54:48;6.97;;;3.22;;
75073;SDS011;63652;51.526;5.080;2023-04-22T00:57:13;6.82;;;3.72;;
75073;SDS011;63652;51.526;5.080;2023-04-22T00:59:39;4.03;;;2.45;;
75073;SDS011;63652;51.526;5.080;2023-04-22T01:02:05;7.18;;;4.53;;
75073;SDS011;63652;51.526;5.080;2023-04-22T01:04:31;6.05;;;3.55;;
75073;SDS011;63652;51.526;5.080;2023-04-22T01:06:56;6.25;;;3.72;;
75073;SDS011;63652;51.526;5.080;2023-04-22T01:09:22;6.00;;;3.95;;
75073;SDS011;63652;51.526;5.080;2023-04-22T01:11:47;7.45;;;4.05;;
75073;SDS011;63652;51.526;5.080;2023-04-22T01:14:13;3.95;;;2.25;;
75073;SDS011;63652;51.526;5.080;2023-04-22T01:16:38;2.83;;;1.55;;
75073;SDS011;63652;51.526;5.080;2023-04-22T01:19:05;2.40;;;1.77;;
75073;SDS011;63652;51.526;5.080;2023-04-22T01:21:30;2.53;;;1.45;;
75073;SDS011;63652;51.526;5.080;2023-04-22T01:23:57;3.70;;;2.08;;
75073;SDS011;63652;51.526;5.080;2023-04-22T01:26:24;3.08;;;1.90;;
75073;SDS011;63652;51.526;5.080;2023-04-22T01:28:50;3.22;;;2.22;;
75073;SDS011;63652;51.526;5.080;2023-04-22T01:31:15;3.15;;;2.08;;
75073;SDS011;63652;51.526;5.080;2023-04-22T01:33:40;2.78;;;2.20;;
75073;SDS011;63652;51.526;5.080;2023-04-22T01:36:06;3.70;;;2.50;;
75073;SDS011;63652;51.526;5.080;2023-04-22T01:38:33;2.78;;;1.98;;
75073;SDS011;63652;51.526;5.080;2023-04-22T01:41:01;2.47;;;1.60;;
75073;SDS011;63652;51.526;5.080;2023-04-22T01:43:27;3.72;;;2.13;;
75073;SDS011;63652;51.526;5.080;2023-04-22T01:45:54;3.72;;;2.28;;
75073;SDS011;63652;51.526;5.080;2023-04-22T01:48:20;3.35;;;1.80;;
75073;SDS011;63652;51.526;5.080;2023-04-22T01:50:46;2.95;;;2.00;;
75073;SDS011;63652;51.526;5.080;2023-04-22T01:53:11;4.97;;;2.50;;
75073;SDS011;63652;51.526;5.080;2023-04-22T01:55:37;5.20;;;2.50;;
75073;SDS011;63652;51.526;5.080;2023-04-22T01:58:03;4.25;;;2.42;;
75073;SDS011;63652;51.526;5.080;2023-04-22T02:00:29;4.30;;;2.47;;
75073;SDS011;63652;51.526;5.080;2023-04-22T02:02:54;4.50;;;2.47;;
75073;SDS011;63652;51.526;5.080;2023-04-22T02:05:20;4.47;;;2.65;;
75073;SDS011;63652;51.526;5.080;2023-04-22T02:07:45;3.95;;;2.50;;
75073;SDS011;63652;51.526;5.080;2023-04-22T02:10:11;4.32;;;2.78;;
75073;SDS011;63652;51.526;5.080;2023-04-22T02:12:36;4.28;;;2.50;;
75073;SDS011;63652;51.526;5.080;2023-04-22T02:15:02;4.15;;;2.78;;
75073;SDS011;63652;51.526;5.080;2023-04-22T02:17:28;4.18;;;2.08;;
75073;SDS011;63652;51.526;5.080;2023-04-22T02:19:54;3.97;;;2.70;;
75073;SDS011;63652;51.526;5.080;2023-04-22T02:22:19;5.80;;;3.20;;
75073;SDS011;63652;51.526;5.080;2023-04-22T02:24:45;3.88;;;2.53;;
75073;SDS011;63652;51.526;5.080;2023-04-22T02:27:11;6.55;;;3.95;;
75073;SDS011;63652;51.526;5.080;2023-04-22T02:29:36;4.28;;;3.17;;
75073;SDS011;63652;51.526;5.080;2023-04-22T02:32:01;4.32;;;3.05;;
75073;SDS011;63652;51.526;5.080;2023-04-22T02:34:27;4.78;;;2.45;;
75073;SDS011;63652;51.526;5.080;2023-04-22T02:36:52;5.50;;;3.35;;
75073;SDS011;63652;51.526;5.080;2023-04-22T02:39:18;3.30;;;2.22;;
75073;SDS011;63652;51.526;5.080;2023-04-22T02:41:43;3.97;;;2.20;;
75073;SDS011;63652;51.526;5.080;2023-04-22T02:44:08;3.72;;;2.15;;
75073;SDS011;63652;51.526;5.080;2023-04-22T02:46:34;4.20;;;2.35;;
75073;SDS011;63652;51.526;5.080;2023-04-22T02:48:59;2.97;;;2.35;;
75073;SDS011;63652;51.526;5.080;2023-04-22T02:51:24;4.85;;;2.90;;
75073;SDS011;63652;51.526;5.080;2023-04-22T02:53:51;3.25;;;2.10;;
75073;SDS011;63652;51.526;5.080;2023-04-22T02:56:16;4.60;;;2.22;;
75073;SDS011;63652;51.526;5.080;2023-04-22T02:58:42;2.97;;;2.10;;
75073;SDS011;63652;51.526;5.080;2023-04-22T03:01:07;3.65;;;2.45;;
75073;SDS011;63652;51.526;5.080;2023-04-22T03:03:32;4.15;;;2.83;;
75073;SDS011;63652;51.526;5.080;2023-04-22T03:05:58;5.60;;;2.45;;
75073;SDS011;63652;51.526;5.080;2023-04-22T03:08:23;3.75;;;1.92;;
75073;SDS011;63652;51.526;5.080;2023-04-22T03:10:49;3.08;;;1.98;;
75073;SDS011;63652;51.526;5.080;2023-04-22T03:13:14;5.45;;;3.17;;
75073;SDS011;63652;51.526;5.080;2023-04-22T03:15:40;4.65;;;2.25;;
75073;SDS011;63652;51.526;5.080;2023-04-22T03:18:05;4.35;;;2.67;;
75073;SDS011;63652;51.526;5.080;2023-04-22T03:20:31;4.45;;;2.72;;
75073;SDS011;63652;51.526;5.080;2023-04-22T03:22:56;2.95;;;1.77;;
75073;SDS011;63652;51.526;5.080;2023-04-22T03:25:22;3.97;;;2.45;;
75073;SDS011;63652;51.526;5.080;2023-04-22T03:27:47;4.00;;;2.88;;
75073;SDS011;63652;51.526;5.080;2023-04-22T03:30:13;3.42;;;2.10;;
75073;SDS011;63652;51.526;5.080;2023-04-22T03:32:38;5.93;;;3.63;;
75073;SDS011;63652;51.526;5.080;2023-04-22T03:35:03;4.53;;;2.83;;
75073;SDS011;63652;51.526;5.080;2023-04-22T03:37:29;5.65;;;3.38;;
75073;SDS011;63652;51.526;5.080;2023-04-22T03:39:54;6.25;;;3.55;;
75073;SDS011;63652;51.526;5.080;2023-04-22T03:42:20;4.82;;;2.58;;
75073;SDS011;63652;51.526;5.080;2023-04-22T03:44:45;4.82;;;2.80;;
75073;SDS011;63652;51.526;5.080;2023-04-22T03:47:11;6.18;;;3.13;;
75073;SDS011;63652;51.526;5.080;2023-04-22T03:49:36;3.00;;;2.15;;
75073;SDS011;63652;51.526;5.080;2023-04-22T03:52:01;7.82;;;3.65;;
75073;SDS011;63652;51.526;5.080;2023-04-22T03:54:27;4.32;;;2.45;;
75073;SDS011;63652;51.526;5.080;2023-04-22T03:56:53;5.47;;;3.10;;
75073;SDS011;63652;51.526;5.080;2023-04-22T03:59:18;5.30;;;3.08;;
75073;SDS011;63652;51.526;5.080;2023-04-22T04:01:47;5.30;;;3.80;;
75073;SDS011;63652;51.526;5.080;2023-04-22T04:04:15;4.80;;;3.10;;
75073;SDS011;63652;51.526;5.080;2023-04-22T04:06:40;4.35;;;2.38;;
75073;SDS011;63652;51.526;5.080;2023-04-22T04:09:06;4.40;;;2.70;;
75073;SDS011;63652;51.526;5.080;2023-04-22T04:11:31;5.07;;;3.22;;
75073;SDS011;63652;51.526;5.080;2023-04-22T04:13:57;6.95;;;4.13;;
75073;SDS011;63652;51.526;5.080;2023-04-22T04:16:22;6.15;;;3.75;;
75073;SDS011;63652;51.526;5.080;2023-04-22T04:18:51;5.95;;;3.40;;
75073;SDS011;63652;51.526;5.080;2023-04-22T04:21:16;4.53;;;2.72;;
75073;SDS011;63652;51.526;5.080;2023-04-22T04:23:42;5.47;;;3.53;;
75073;SDS011;63652;51.526;5.080;2023-04-22T04:26:07;4.82;;;3.38;;
75073;SDS011;63652;51.526;5.080;2023-04-22T04:28:34;6.40;;;3.92;;
75073;SDS011;63652;51.526;5.080;2023-04-22T04:31:00;5.63;;;3.38;;
75073;SDS011;63652;51.526;5.080;2023-04-22T04:33:27;6.63;;;3.03;;
75073;SDS011;63652;51.526;5.080;2023-04-22T04:35:58;4.53;;;3.15;;
75073;SDS011;63652;51.526;5.080;2023-04-22T04:38:24;5.70;;;2.70;;
75073;SDS011;63652;51.526;5.080;2023-04-22T04:40:50;6.00;;;2.90;;
75073;SDS011;63652;51.526;5.080;2023-04-22T04:43:16;6.18;;;3.50;;
75073;SDS011;63652;51.526;5.080;2023-04-22T04:45:42;5.38;;;3.17;;
75073;SDS011;63652;51.526;5.080;2023-04-22T04:48:13;5.70;;;3.83;;
75073;SDS011;63652;51.526;5.080;2023-04-22T04:50:42;13.52;;;3.65;;
75073;SDS011;63652;51.526;5.080;2023-04-22T04:53:08;6.00;;;3.33;;
75073;SDS011;63652;51.526;5.080;2023-04-22T04:55:36;8.20;;;4.38;;
75073;SDS011;63652;51.526;5.080;2023-04-22T04:58:02;7.93;;;4.00;;
75073;SDS011;63652;51.526;5.080;2023-04-22T05:00:28;7.75;;;4.43;;
75073;SDS011;63652;51.526;5.080;2023-04-22T05:02:54;7.72;;;4.28;;
75073;SDS011;63652;51.526;5.080;2023-04-22T05:05:19;6.25;;;3.95;;
75073;SDS011;63652;51.526;5.080;2023-04-22T05:07:45;9.73;;;5.35;;
75073;SDS011;63652;51.526;5.080;2023-04-22T05:10:10;7.75;;;4.03;;
75073;SDS011;63652;51.526;5.080;2023-04-22T05:12:36;7.20;;;4.32;;
75073;SDS011;63652;51.526;5.080;2023-04-22T05:15:01;7.30;;;3.72;;
75073;SDS011;63652;51.526;5.080;2023-04-22T05:17:27;6.72;;;4.03;;
75073;SDS011;63652;51.526;5.080;2023-04-22T05:19:52;8.90;;;5.22;;
75073;SDS011;63652;51.526;5.080;2023-04-22T05:22:17;6.80;;;3.95;;
75073;SDS011;63652;51.526;5.080;2023-04-22T05:24:43;6.38;;;4.35;;
75073;SDS011;63652;51.526;5.080;2023-04-22T05:27:09;9.52;;;5.00;;
75073;SDS011;63652;51.526;5.080;2023-04-22T05:29:34;6.15;;;3.58;;
75073;SDS011;63652;51.526;5.080;2023-04-22T05:31:59;7.78;;;5.03;;
75073;SDS011;63652;51.526;5.080;2023-04-22T05:34:25;7.05;;;3.83;;
75073;SDS011;63652;51.526;5.080;2023-04-22T05:36:50;8.18;;;4.97;;
75073;SDS011;63652;51.526;5.080;2023-04-22T05:39:16;9.40;;;5.72;;
75073;SDS011;63652;51.526;5.080;2023-04-22T05:41:41;7.60;;;5.15;;
75073;SDS011;63652;51.526;5.080;2023-04-22T05:44:06;9.05;;;5.10;;
75073;SDS011;63652;51.526;5.080;2023-04-22T05:46:32;8.50;;;5.30;;
75073;SDS011;63652;51.526;5.080;2023-04-22T05:48:57;7.72;;;4.75;;
75073;SDS011;63652;51.526;5.080;2023-04-22T05:51:23;9.85;;;6.10;;
75073;SDS011;63652;51.526;5.080;2023-04-22T05:53:48;9.25;;;6.32;;
75073;SDS011;63652;51.526;5.080;2023-04-22T05:56:14;9.93;;;5.55;;
75073;SDS011;63652;51.526;5.080;2023-04-22T05:58:40;8.77;;;5.43;;
75073;SDS011;63652;51.526;5.080;2023-04-22T06:01:05;10.77;;;6.43;;
75073;SDS011;63652;51.526;5.080;2023-04-22T06:03:30;11.35;;;6.35;;
75073;SDS011;63652;51.526;5.080;2023-04-22T06:05:59;10.93;;;6.00;;
75073;SDS011;63652;51.526;5.080;2023-04-22T06:08:24;10.63;;;6.07;;
75073;SDS011;63652;51.526;5.080;2023-04-22T06:10:50;12.63;;;6.68;;
75073;SDS011;63652;51.526;5.080;2023-04-22T06:13:16;10.63;;;6.10;;
75073;SDS011;63652;51.526;5.080;2023-04-22T06:15:41;10.95;;;6.78;;
75073;SDS011;63652;51.526;5.080;2023-04-22T06:18:07;10.98;;;6.95;;
75073;SDS011;63652;51.526;5.080;2023-04-22T06:20:32;11.80;;;6.72;;
75073;SDS011;63652;51.526;5.080;2023-04-22T06:22:59;10.75;;;6.63;;
75073;SDS011;63652;51.526;5.080;2023-04-22T06:25:25;11.82;;;6.72;;
75073;SDS011;63652;51.526;5.080;2023-04-22T06:27:51;12.63;;;7.70;;
75073;SDS011;63652;51.526;5.080;2023-04-22T06:30:20;13.48;;;7.75;;
75073;SDS011;63652;51.526;5.080;2023-04-22T06:32:45;12.98;;;7.97;;
75073;SDS011;63652;51.526;5.080;2023-04-22T06:35:10;15.05;;;6.80;;
75073;SDS011;63652;51.526;5.080;2023-04-22T06:37:36;9.20;;;6.70;;
75073;SDS011;63652;51.526;5.080;2023-04-22T06:40:01;12.63;;;7.75;;
75073;SDS011;63652;51.526;5.080;2023-04-22T06:42:27;11.75;;;7.38;;
75073;SDS011;63652;51.526;5.080;2023-04-22T06:44:52;8.52;;;6.15;;
75073;SDS011;63652;51.526;5.080;2023-04-22T06:47:17;11.25;;;7.15;;
75073;SDS011;63652;51.526;5.080;2023-04-22T06:49:43;11.07;;;6.85;;
75073;SDS011;63652;51.526;5.080;2023-04-22T06:52:09;12.52;;;7.25;;
75073;SDS011;63652;51.526;5.080;2023-04-22T06:54:34;13.65;;;6.82;;
75073;SDS011;63652;51.526;5.080;2023-04-22T06:56:59;12.55;;;7.90;;
75073;SDS011;63652;51.526;5.080;2023-04-22T06:59:25;11.93;;;7.30;;
75073;SDS011;63652;51.526;5.080;2023-04-22T07:01:50;9.02;;;6.53;;
75073;SDS011;63652;51.526;5.080;2023-04-22T07:04:16;10.60;;;6.25;;
75073;SDS011;63652;51.526;5.080;2023-04-22T07:06:41;11.43;;;5.95;;
75073;SDS011;63652;51.526;5.080;2023-04-22T07:09:07;13.73;;;7.00;;
75073;SDS011;63652;51.526;5.080;2023-04-22T07:11:33;10.38;;;6.13;;
75073;SDS011;63652;51.526;5.080;2023-04-22T07:13:58;12.48;;;6.75;;
75073;SDS011;63652;51.526;5.080;2023-04-22T07:16:25;9.32;;;6.03;;
75073;SDS011;63652;51.526;5.080;2023-04-22T07:18:50;11.05;;;6.85;;
75073;SDS011;63652;51.526;5.080;2023-04-22T07:21:16;11.07;;;6.97;;
75073;SDS011;63652;51.526;5.080;2023-04-22T07:23:41;10.10;;;6.72;;
75073;SDS011;63652;51.526;5.080;2023-04-22T07:26:06;12.05;;;7.18;;
75073;SDS011;63652;51.526;5.080;2023-04-22T07:28:32;9.07;;;6.18;;
75073;SDS011;63652;51.526;5.080;2023-04-22T07:30:57;10.13;;;6.63;;
75073;SDS011;63652;51.526;5.080;2023-04-22T07:33:22;11.77;;;5.78;;
75073;SDS011;63652;51.526;5.080;2023-04-22T07:35:48;10.93;;;6.38;;
75073;SDS011;63652;51.526;5.080;2023-04-22T07:38:13;10.73;;;6.30;;
75073;SDS011;63652;51.526;5.080;2023-04-22T07:40:39;11.13;;;5.95;;
75073;SDS011;63652;51.526;5.080;2023-04-22T07:43:04;9.13;;;5.72;;
75073;SDS011;63652;51.526;5.080;2023-04-22T07:45:30;7.65;;;5.13;;
75073;SDS011;63652;51.526;5.080;2023-04-22T07:47:56;8.80;;;4.97;;
75073;SDS011;63652;51.526;5.080;2023-04-22T07:50:21;7.68;;;5.53;;
75073;SDS011;63652;51.526;5.080;2023-04-22T07:52:47;8.05;;;4.47;;
75073;SDS011;63652;51.526;5.080;2023-04-22T07:55:12;6.25;;;3.83;;
75073;SDS011;63652;51.526;5.080;2023-04-22T07:57:38;8.27;;;4.72;;
75073;SDS011;63652;51.526;5.080;2023-04-22T08:00:07;8.32;;;5.15;;
75073;SDS011;63652;51.526;5.080;2023-04-22T08:02:33;7.50;;;5.00;;
75073;SDS011;63652;51.526;5.080;2023-04-22T08:04:59;8.82;;;5.47;;
75073;SDS011;63652;51.526;5.080;2023-04-22T08:07:24;10.18;;;5.72;;
75073;SDS011;63652;51.526;5.080;2023-04-22T08:09:50;10.20;;;5.72;;
75073;SDS011;63652;51.526;5.080;2023-04-22T08:12:16;7.57;;;4.93;;
75073;SDS011;63652;51.526;5.080;2023-04-22T08:14:41;7.38;;;4.75;;
75073;SDS011;63652;51.526;5.080;2023-04-22T08:17:07;9.85;;;5.57;;
75073;SDS011;63652;51.526;5.080;2023-04-22T08:19:32;8.07;;;4.70;;
75073;SDS011;63652;51.526;5.080;2023-04-22T08:21:58;8.20;;;4.90;;
75073;SDS011;63652;51.526;5.080;2023-04-22T08:24:23;10.02;;;5.28;;
75073;SDS011;63652;51.526;5.080;2023-04-22T08:26:48;8.30;;;5.25;;
75073;SDS011;63652;51.526;5.080;2023-04-22T08:29:14;8.70;;;5.47;;
75073;SDS011;63652;51.526;5.080;2023-04-22T08:31:40;7.20;;;5.10;;
75073;SDS011;63652;51.526;5.080;2023-04-22T08:34:06;11.57;;;6.38;;
75073;SDS011;63652;51.526;5.080;2023-04-22T08:36:31;7.97;;;5.38;;
75073;SDS011;63652;51.526;5.080;2023-04-22T08:38:56;9.63;;;5.15;;
75073;SDS011;63652;51.526;5.080;2023-04-22T08:41:22;10.07;;;6.18;;
75073;SDS011;63652;51.526;5.080;2023-04-22T08:43:51;7.53;;;5.07;;
75073;SDS011;63652;51.526;5.080;2023-04-22T08:46:17;8.75;;;5.15;;
75073;SDS011;63652;51.526;5.080;2023-04-22T08:48:44;8.10;;;4.85;;
75073;SDS011;63652;51.526;5.080;2023-04-22T08:51:11;6.65;;;4.70;;
75073;SDS011;63652;51.526;5.080;2023-04-22T08:53:39;7.53;;;4.75;;
75073;SDS011;63652;51.526;5.080;2023-04-22T08:56:04;7.45;;;4.68;;
75073;SDS011;63652;51.526;5.080;2023-04-22T09:09:14;6.65;;;4.43;;
75073;SDS011;63652;51.526;5.080;2023-04-22T09:11:39;7.07;;;5.03;;
75073;SDS011;63652;51.526;5.080;2023-04-22T09:14:05;9.10;;;4.55;;
75073;SDS011;63652;51.526;5.080;2023-04-22T09:16:31;7.10;;;4.90;;
75073;SDS011;63652;51.526;5.080;2023-04-22T09:18:57;6.85;;;4.50;;
75073;SDS011;63652;51.526;5.080;2023-04-22T09:21:25;7.85;;;4.55;;
75073;SDS011;63652;51.526;5.080;2023-04-22T09:23:56;7.88;;;4.85;;
75073;SDS011;63652;51.526;5.080;2023-04-22T09:26:22;5.97;;;3.85;;
75073;SDS011;63652;51.526;5.080;2023-04-22T09:28:51;6.10;;;4.13;;
75073;SDS011;63652;51.526;5.080;2023-04-22T09:31:19;7.95;;;4.18;;
75073;SDS011;63652;51.526;5.080;2023-04-22T09:33:53;7.15;;;4.03;;
75073;SDS011;63652;51.526;5.080;2023-04-22T09:36:29;6.82;;;4.15;;
75073;SDS011;63652;51.526;5.080;2023-04-22T09:38:59;6.18;;;3.78;;
75073;SDS011;63652;51.526;5.080;2023-04-22T09:41:38;6.40;;;4.10;;
75073;SDS011;63652;51.526;5.080;2023-04-22T09:44:08;5.68;;;3.53;;
75073;SDS011;63652;51.526;5.080;2023-04-22T09:46:34;7.15;;;4.07;;
75073;SDS011;63652;51.526;5.080;2023-04-22T09:49:00;7.18;;;3.83;;
75073;SDS011;63652;51.526;5.080;2023-04-22T09:51:26;5.55;;;3.45;;
75073;SDS011;63652;51.526;5.080;2023-04-22T09:53:59;6.80;;;3.92;;
75073;SDS011;63652;51.526;5.080;2023-04-22T09:56:41;7.70;;;4.82;;
75073;SDS011;63652;51.526;5.080;2023-04-22T09:59:09;7.15;;;4.57;;
75073;SDS011;63652;51.526;5.080;2023-04-22T10:01:58;6.03;;;3.40;;
75073;SDS011;63652;51.526;5.080;2023-04-22T10:04:27;6.22;;;4.22;;
75073;SDS011;63652;51.526;5.080;2023-04-22T10:06:53;5.75;;;3.63;;
75073;SDS011;63652;51.526;5.080;2023-04-22T10:09:23;6.75;;;4.13;;
75073;SDS011;63652;51.526;5.080;2023-04-22T10:11:50;5.43;;;3.10;;
75073;SDS011;63652;51.526;5.080;2023-04-22T10:14:17;4.90;;;2.53;;
75073;SDS011;63652;51.526;5.080;2023-04-22T10:16:44;6.53;;;3.00;;
75073;SDS011;63652;51.526;5.080;2023-04-22T10:19:11;5.40;;;3.30;;
75073;SDS011;63652;51.526;5.080;2023-04-22T10:21:42;4.85;;;2.80;;
75073;SDS011;63652;51.526;5.080;2023-04-22T10:24:19;7.28;;;3.30;;
75073;SDS011;63652;51.526;5.080;2023-04-22T10:26:55;8.05;;;3.55;;
75073;SDS011;63652;51.526;5.080;2023-04-22T10:29:22;5.82;;;3.20;;
75073;SDS011;63652;51.526;5.080;2023-04-22T10:34:29;4.53;;;2.85;;
75073;SDS011;63652;51.526;5.080;2023-04-22T10:39:25;6.18;;;3.45;;
75073;SDS011;63652;51.526;5.080;2023-04-22T10:41:56;5.55;;;2.75;;
75073;SDS011;63652;51.526;5.080;2023-04-22T10:44:43;5.65;;;3.10;;
75073;SDS011;63652;51.526;5.080;2023-04-22T10:47:26;5.68;;;3.25;;
75073;SDS011;63652;51.526;5.080;2023-04-22T10:52:57;5.82;;;3.88;;
75073;SDS011;63652;51.526;5.080;2023-04-22T10:55:43;7.43;;;3.83;;
75073;SDS011;63652;51.526;5.080;2023-04-22T10:58:20;6.15;;;3.60;;
75073;SDS011;63652;51.526;5.080;2023-04-22T11:00:51;7.18;;;4.20;;
75073;SDS011;63652;51.526;5.080;2023-04-22T11:03:26;7.85;;;3.88;;
75073;SDS011;63652;51.526;5.080;2023-04-22T11:06:11;8.05;;;4.38;;
75073;SDS011;63652;51.526;5.080;2023-04-22T11:08:38;9.52;;;4.63;;
75073;SDS011;63652;51.526;5.080;2023-04-22T11:11:09;7.47;;;4.32;;
75073;SDS011;63652;51.526;5.080;2023-04-22T11:13:35;6.90;;;4.45;;
75073;SDS011;63652;51.526;5.080;2023-04-22T11:16:00;8.13;;;4.25;;
75073;SDS011;63652;51.526;5.080;2023-04-22T11:18:27;9.15;;;5.65;;
75073;SDS011;63652;51.526;5.080;2023-04-22T11:20:52;8.52;;;4.80;;
75073;SDS011;63652;51.526;5.080;2023-04-22T11:23:27;8.82;;;4.47;;
75073;SDS011;63652;51.526;5.080;2023-04-22T11:25:53;8.05;;;4.28;;
75073;SDS011;63652;51.526;5.080;2023-04-22T11:28:20;8.40;;;4.68;;
75073;SDS011;63652;51.526;5.080;2023-04-22T11:30:47;6.72;;;4.70;;
75073;SDS011;63652;51.526;5.080;2023-04-22T11:33:13;9.63;;;4.63;;
75073;SDS011;63652;51.526;5.080;2023-04-22T11:35:40;8.38;;;4.95;;
75073;SDS011;63652;51.526;5.080;2023-04-22T11:38:06;10.23;;;6.35;;
75073;SDS011;63652;51.526;5.080;2023-04-22T11:40:40;8.82;;;5.30;;
75073;SDS011;63652;51.526;5.080;2023-04-22T11:43:07;8.90;;;4.95;;
75073;SDS011;63652;51.526;5.080;2023-04-22T11:45:36;8.30;;;4.78;;
75073;SDS011;63652;51.526;5.080;2023-04-22T11:48:03;8.68;;;5.68;;
75073;SDS011;63652;51.526;5.080;2023-04-22T11:50:34;11.68;;;5.07;;
75073;SDS011;63652;51.526;5.080;2023-04-22T11:53:02;10.93;;;5.88;;
75073;SDS011;63652;51.526;5.080;2023-04-22T11:55:29;8.38;;;5.20;;
75073;SDS011;63652;51.526;5.080;2023-04-22T12:00:23;9.18;;;5.28;;
75073;SDS011;63652;51.526;5.080;2023-04-22T12:02:56;9.70;;;5.07;;
75073;SDS011;63652;51.526;5.080;2023-04-22T12:05:36;8.07;;;5.20;;
75073;SDS011;63652;51.526;5.080;2023-04-22T12:08:25;7.97;;;5.20;;
75073;SDS011;63652;51.526;5.080;2023-04-22T12:10:50;7.03;;;5.07;;
75073;SDS011;63652;51.526;5.080;2023-04-22T12:13:18;11.82;;;5.47;;
75073;SDS011;63652;51.526;5.080;2023-04-22T12:15:47;9.55;;;5.43;;
75073;SDS011;63652;51.526;5.080;2023-04-22T12:18:21;9.23;;;5.70;;
75073;SDS011;63652;51.526;5.080;2023-04-22T12:21:11;7.28;;;5.30;;
75073;SDS011;63652;51.526;5.080;2023-04-22T12:26:08;8.80;;;5.00;;
75073;SDS011;63652;51.526;5.080;2023-04-22T12:28:35;11.70;;;5.30;;
75073;SDS011;63652;51.526;5.080;2023-04-22T12:31:01;12.02;;;5.15;;
75073;SDS011;63652;51.526;5.080;2023-04-22T12:33:26;8.55;;;5.70;;
75073;SDS011;63652;51.526;5.080;2023-04-22T12:35:52;10.63;;;5.43;;
75073;SDS011;63652;51.526;5.080;2023-04-22T12:38:17;10.45;;;7.28;;
75073;SDS011;63652;51.526;5.080;2023-04-22T12:40:43;13.88;;;6.95;;
75073;SDS011;63652;51.526;5.080;2023-04-22T12:43:08;9.95;;;5.97;;
75073;SDS011;63652;51.526;5.080;2023-04-22T12:45:34;10.10;;;6.03;;
75073;SDS011;63652;51.526;5.080;2023-04-22T12:47:59;10.25;;;6.78;;
75073;SDS011;63652;51.526;5.080;2023-04-22T12:50:25;8.75;;;5.32;;
75073;SDS011;63652;51.526;5.080;2023-04-22T12:52:51;8.27;;;4.80;;
75073;SDS011;63652;51.526;5.080;2023-04-22T12:55:16;10.95;;;5.40;;
75073;SDS011;63652;51.526;5.080;2023-04-22T12:57:43;8.60;;;5.20;;
75073;SDS011;63652;51.526;5.080;2023-04-22T13:00:09;13.65;;;6.80;;
75073;SDS011;63652;51.526;5.080;2023-04-22T13:02:39;10.70;;;6.35;;
75073;SDS011;63652;51.526;5.080;2023-04-22T13:05:05;9.50;;;5.35;;
75073;SDS011;63652;51.526;5.080;2023-04-22T13:07:30;9.00;;;5.78;;
75073;SDS011;63652;51.526;5.080;2023-04-22T13:09:56;12.02;;;6.05;;
75073;SDS011;63652;51.526;5.080;2023-04-22T13:12:21;14.93;;;7.18;;
75073;SDS011;63652;51.526;5.080;2023-04-22T13:14:46;10.25;;;6.40;;
75073;SDS011;63652;51.526;5.080;2023-04-22T13:17:12;10.80;;;5.18;;
75073;SDS011;63652;51.526;5.080;2023-04-22T13:19:37;11.73;;;5.88;;
75073;SDS011;63652;51.526;5.080;2023-04-22T13:22:03;11.70;;;5.93;;
75073;SDS011;63652;51.526;5.080;2023-04-22T13:24:28;8.90;;;6.30;;
75073;SDS011;63652;51.526;5.080;2023-04-22T13:26:54;9.82;;;5.88;;
75073;SDS011;63652;51.526;5.080;2023-04-22T13:29:20;9.35;;;6.15;;
75073;SDS011;63652;51.526;5.080;2023-04-22T13:31:45;9.25;;;5.50;;
75073;SDS011;63652;51.526;5.080;2023-04-22T13:34:10;11.10;;;5.85;;
75073;SDS011;63652;51.526;5.080;2023-04-22T13:36:36;11.43;;;5.95;;
75073;SDS011;63652;51.526;5.080;2023-04-22T13:39:02;10.32;;;5.78;;
75073;SDS011;63652;51.526;5.080;2023-04-22T13:41:27;8.15;;;5.05;;
75073;SDS011;63652;51.526;5.080;2023-04-22T13:43:52;11.45;;;6.47;;
75073;SDS011;63652;51.526;5.080;2023-04-22T13:46:20;11.10;;;6.72;;
75073;SDS011;63652;51.526;5.080;2023-04-22T13:48:45;10.15;;;5.85;;
75073;SDS011;63652;51.526;5.080;2023-04-22T13:51:11;9.32;;;5.35;;
75073;SDS011;63652;51.526;5.080;2023-04-22T13:53:36;11.68;;;6.82;;
75073;SDS011;63652;51.526;5.080;2023-04-22T13:56:01;10.68;;;6.00;;
75073;SDS011;63652;51.526;5.080;2023-04-22T13:58:27;10.82;;;6.05;;
75073;SDS011;63652;51.526;5.080;2023-04-22T14:00:52;11.07;;;5.35;;
75073;SDS011;63652;51.526;5.080;2023-04-22T14:03:18;11.43;;;6.50;;
75073;SDS011;63652;51.526;5.080;2023-04-22T14:05:43;9.98;;;6.43;;
75073;SDS011;63652;51.526;5.080;2023-04-22T14:08:09;10.20;;;6.07;;
75073;SDS011;63652;51.526;5.080;2023-04-22T14:10:35;9.57;;;6.13;;
75073;SDS011;63652;51.526;5.080;2023-04-22T14:13:00;10.32;;;6.28;;
75073;SDS011;63652;51.526;5.080;2023-04-22T14:15:26;11.65;;;6.25;;
75073;SDS011;63652;51.526;5.080;2023-04-22T14:17:52;11.88;;;6.18;;
75073;SDS011;63652;51.526;5.080;2023-04-22T14:20:17;10.98;;;6.80;;
75073;SDS011;63652;51.526;5.080;2023-04-22T14:22:42;12.35;;;6.60;;
75073;SDS011;63652;51.526;5.080;2023-04-22T14:25:08;12.50;;;6.65;;
75073;SDS011;63652;51.526;5.080;2023-04-22T14:27:33;12.68;;;8.43;;
75073;SDS011;63652;51.526;5.080;2023-04-22T14:29:59;11.45;;;7.50;;
75073;SDS011;63652;51.526;5.080;2023-04-22T14:32:25;14.52;;;8.13;;
75073;SDS011;63652;51.526;5.080;2023-04-22T14:34:51;13.13;;;7.43;;
75073;SDS011;63652;51.526;5.080;2023-04-22T14:37:16;14.50;;;7.72;;
75073;SDS011;63652;51.526;5.080;2023-04-22T14:39:42;13.15;;;8.55;;
75073;SDS011;63652;51.526;5.080;2023-04-22T14:42:07;18.77;;;8.45;;
75073;SDS011;63652;51.526;5.080;2023-04-22T14:44:33;12.85;;;7.60;;
75073;SDS011;63652;51.526;5.080;2023-04-22T14:46:58;12.45;;;7.22;;
75073;SDS011;63652;51.526;5.080;2023-04-22T14:49:24;15.63;;;8.88;;
75073;SDS011;63652;51.526;5.080;2023-04-22T14:51:49;15.98;;;9.25;;
75073;SDS011;63652;51.526;5.080;2023-04-22T14:54:14;15.32;;;8.65;;
75073;SDS011;63652;51.526;5.080;2023-04-22T14:56:40;11.30;;;7.10;;
75073;SDS011;63652;51.526;5.080;2023-04-22T14:59:05;16.45;;;8.65;;
75073;SDS011;63652;51.526;5.080;2023-04-22T15:01:31;15.43;;;8.15;;
75073;SDS011;63652;51.526;5.080;2023-04-22T15:03:56;16.42;;;8.55;;